サンフアン の空港の天気 - METARとTAF

ルイス・ムニョス・マリン国際空港 ( TJSJ / SJU ) - プエルトリコ サンフアン
飛行場実況気象(Metar)
観測時間10/16 03:56 AST (10/16 07:56 UTC)
風向・風速南南東 2m/s
視程10km以上
天気現象
少しの雲 雲底高度 760m
全天の4割程度の雲 雲底高度 1370m
気温25.6℃
湿度87%
気圧1013.6hPa
METARTJSJ 160756Z 15003KT 10SM FEW025 SCT045 26/23 A2994 RMK AO2 SLP136 T02560233
過去の天気等 Google飛行場航空写真 Wunderground天気予報

過去48時間のMETAR

飛行場予報(TAF)
発表時間: 10/16 01:27 AST (10/16 05:27 UTC)
予報対象時間: 16日2時 AST ~ 17日2時 AST
風向・風速不定 1m/s
視程10km以上
天気現象周辺でしゅう雨
少しの雲 雲底高度 910m
全天の4割程度の雲 雲底高度 1830m
16日10時 AST から
風向・風速東北東 4m/s
視程10km以上
少しの雲 雲底高度 1070m
全天の4割程度の雲 雲底高度 1520m
16日12時 AST から
風向・風速北東 4m/s
視程10km以上
天気現象周辺で雷
全天の4割程度の積乱雲 雲底高度 760m
全天の8割程度の雲 雲底高度 1520m
16日18時 AST から
風向・風速不定 2m/s
視程10km以上
天気現象周辺でしゅう雨
全天の4割程度の雲 雲底高度 910m
全天の4割程度の雲 雲底高度 1830m
TJSJ 160527Z 1606/1706 VRB02KT P6SM VCSH FEW030 SCT060
FM161400 06008KT P6SM FEW035 SCT050
FM161600 05008KT P6SM VCTS SCT025CB BKN050
FM162200 VRB03KT P6SM VCSH SCT030 SCT060